Time;durP1;ratioP1;P1;durP2;ratioP2;P2;SDS_P1;SDS_P2;PMS_P1;PMS_P2;Temp;Humidity;BMP_temperature;BMP_pressure;BME280_temperature;BME280_humidity;BME280_pressure;Samples;Min_cycle;Max_cycle;Signal;HPM_P1;HPM_P2
2022/12/08 00:00:54;;;;;;;16.02;5.50;;;-0.90;99.90;;;;;;5069859;28;20384;-73
2022/12/08 00:03:19;;;;;;;12.93;6.05;;;0.10;99.90;;;;;;5069571;28;20146;-73
2022/12/08 00:09:31;;;;;;;11.77;6.53;;;-0.80;99.90;;;;;;5065221;28;20052;-73
2022/12/08 00:11:25;;;;;;;13.07;6.30;;;-0.80;99.90;;;;;;5051199;28;20469;-73
2022/12/08 00:13:51;;;;;;;12.90;7.35;;;-0.80;99.90;;;;;;5069418;28;20044;-75
2022/12/08 00:16:17;;;;;;;9.60;5.70;;;-0.80;99.90;;;;;;5069635;28;20396;-75
2022/12/08 00:18:42;;;;;;;12.55;5.63;;;-0.70;99.90;;;;;;5055134;28;20036;-73
2022/12/08 00:21:08;;;;;;;14.60;7.25;;;0.30;99.90;;;;;;5057936;28;20025;-73
2022/12/08 00:23:33;;;;;;;12.02;5.25;;;-0.10;99.90;;;;;;5069876;28;20024;-73
2022/12/08 00:26:04;;;;;;;8.80;5.68;;;-0.70;99.90;;;;;;5060866;28;20151;-74
2022/12/08 00:28:30;;;;;;;13.32;7.25;;;-0.70;99.90;;;;;;5047748;28;20032;-73
2022/12/08 00:30:56;;;;;;;9.13;4.68;;;-0.70;99.90;;;;;;5064515;28;20024;-74
2022/12/08 00:33:22;;;;;;;13.45;6.80;;;-0.60;99.90;;;;;;5056527;28;20021;-73
2022/12/08 00:35:47;;;;;;;13.10;7.07;;;-0.60;99.90;;;;;;5064949;28;20119;-73
2022/12/08 00:38:13;;;;;;;13.30;7.63;;;0.10;99.90;;;;;;5068287;28;20021;-75
2022/12/08 00:40:46;;;;;;;13.27;6.43;;;-0.70;99.90;;;;;;5062323;28;20025;-75
2022/12/08 00:43:13;;;;;;;12.88;7.07;;;-0.70;99.90;;;;;;5049037;28;20047;-74
2022/12/08 00:45:39;;;;;;;14.00;7.53;;;-3.00;99.90;;;;;;5063021;28;20032;-75
2022/12/08 00:48:05;;;;;;;10.23;5.47;;;-0.60;99.90;;;;;;5051608;28;20523;-75
2022/12/08 00:50:31;;;;;;;10.63;6.63;;;1.10;99.90;;;;;;5057478;28;20025;-74
2022/12/08 00:52:57;;;;;;;12.68;4.75;;;-0.60;99.90;;;;;;5049616;28;20436;-73
2022/12/08 00:55:22;;;;;;;13.25;6.53;;;-0.60;99.90;;;;;;5073165;28;20090;-75
2022/12/08 00:57:48;;;;;;;12.07;6.20;;;-0.60;99.90;;;;;;5056073;28;20466;-74
2022/12/08 01:00:14;;;;;;;11.75;5.35;;;-0.50;99.90;;;;;;5053335;28;20037;-74
2022/12/08 01:02:40;;;;;;;13.68;7.57;;;-0.60;99.90;;;;;;5057103;28;20062;-73
2022/12/08 01:05:06;;;;;;;13.27;5.88;;;-0.60;99.90;;;;;;5052129;28;20021;-73
2022/12/08 01:07:32;;;;;;;14.52;5.60;;;-0.60;99.90;;;;;;5057713;28;20032;-75
2022/12/08 01:09:58;;;;;;;11.23;7.00;;;-0.60;99.90;;;;;;5071419;28;20032;-74
2022/12/08 01:12:23;;;;;;;12.38;6.00;;;-0.60;99.90;;;;;;5051599;28;20021;-73
2022/12/08 01:14:49;;;;;;;14.98;6.18;;;-0.60;99.90;;;;;;5068675;28;20033;-73
2022/12/08 01:17:15;;;;;;;13.52;6.85;;;0.70;99.90;;;;;;5072862;28;20408;-74
2022/12/08 01:19:40;;;;;;;15.43;6.68;;;-0.50;99.90;;;;;;5072959;28;20400;-73
2022/12/08 01:22:06;;;;;;;11.85;6.65;;;-0.60;99.90;;;;;;5072843;28;20041;-75
2022/12/08 01:24:32;;;;;;;14.40;7.57;;;0.70;99.90;;;;;;5072723;28;20477;-73
2022/12/08 01:26:57;;;;;;;14.30;7.10;;;-0.60;99.90;;;;;;5072532;28;20497;-73
2022/12/08 01:29:23;;;;;;;14.02;7.47;;;-0.30;99.90;;;;;;5072512;28;20537;-73
2022/12/08 01:31:48;;;;;;;13.25;5.63;;;-0.60;99.90;;;;;;5062645;28;20021;-73
2022/12/08 01:34:14;;;;;;;13.18;5.25;;;-0.60;99.90;;;;;;5052534;28;20111;-73
2022/12/08 01:36:41;;;;;;;13.00;6.00;;;0.00;99.90;;;;;;5052685;28;20017;-75
2022/12/08 01:39:12;;;;;;;15.68;7.30;;;-0.70;99.90;;;;;;5052844;28;20409;-74
2022/12/08 01:41:38;;;;;;;18.67;7.22;;;0.90;99.90;;;;;;5052414;28;20013;-73
2022/12/08 01:44:24;;;;;;;14.68;6.63;;;0.90;99.90;;;;;;5052110;28;20040;-73
2022/12/08 01:46:52;;;;;;;12.63;7.32;;;-0.80;99.90;;;;;;5041327;28;20029;-73
2022/12/08 01:49:31;;;;;;;17.08;8.32;;;-0.80;99.90;;;;;;5052148;28;20029;-72
2022/12/08 01:52:12;;;;;;;;;;;-0.90;99.90;;;;;;5052647;28;20025;-73
2022/12/08 01:55:03;;;;;;;18.27;8.57;;;-0.90;99.90;;;;;;5052220;28;20162;-75
2022/12/08 01:57:36;;;;;;;17.45;7.85;;;-1.10;99.90;;;;;;5048418;28;20029;-73
2022/12/08 02:00:07;;;;;;;17.75;9.00;;;-1.20;99.90;;;;;;5052320;28;20021;-73
2022/12/08 02:02:53;;;;;;;15.25;6.85;;;-1.40;99.90;;;;;;5051867;28;20028;-72
2022/12/08 02:05:23;;;;;;;20.15;8.40;;;-1.50;99.90;;;;;;5051958;28;20396;-73
2022/12/08 02:07:50;;;;;;;16.60;7.20;;;-1.50;99.90;;;;;;5050461;28;20032;-74
2022/12/08 02:10:19;;;;;;;13.27;7.28;;;-1.60;99.90;;;;;;5051960;28;20029;-74
2022/12/08 02:12:45;;;;;;;15.65;7.07;;;-1.70;99.90;;;;;;5052177;28;20021;-73
2022/12/08 02:15:11;;;;;;;13.88;8.27;;;-0.60;99.90;;;;;;5051783;28;20443;-75
2022/12/08 02:17:40;;;;;;;16.42;5.82;;;-1.80;99.90;;;;;;5050472;28;20596;-76
2022/12/08 02:20:30;;;;;;;12.45;5.25;;;-1.70;99.90;;;;;;5050557;28;20066;-73
2022/12/08 02:23:25;;;;;;;11.73;6.82;;;-1.70;99.90;;;;;;5066239;28;20127;-76
2022/12/08 02:26:03;;;;;;;15.48;6.25;;;-1.60;99.90;;;;;;5071554;28;20021;-74
2022/12/08 02:28:50;;;;;;;15.70;8.27;;;-1.50;99.90;;;;;;5071539;28;20064;-74
2022/12/08 02:31:29;;;;;;;11.60;6.28;;;-1.60;99.90;;;;;;5071615;28;20043;-76
2022/12/08 02:34:09;;;;;;;9.60;6.88;;;-1.70;99.90;;;;;;5071393;28;20048;-75
2022/12/08 02:37:12;;;;;;;18.23;9.32;;;-1.90;99.90;;;;;;5070142;28;20430;-75
2022/12/08 02:39:46;;;;;;;25.17;9.18;;;-2.00;99.90;;;;;;5070046;28;20056;-74
2022/12/08 02:42:38;;;;;;;17.00;5.88;;;-2.10;99.90;;;;;;5071119;28;20112;-75
2022/12/08 02:45:07;;;;;;;15.68;7.85;;;-2.20;99.90;;;;;;5059264;28;20032;-74
2022/12/08 02:47:33;;;;;;;16.75;7.38;;;-2.30;99.90;;;;;;5051532;28;20032;-74
2022/12/08 02:49:59;;;;;;;11.82;6.88;;;-2.30;99.90;;;;;;5050011;28;20120;-75
2022/12/08 02:52:25;;;;;;;20.15;7.20;;;-2.40;99.90;;;;;;5050193;28;20459;-74
2022/12/08 02:54:55;;;;;;;19.02;7.25;;;0.40;99.90;;;;;;5051199;28;20029;-75
2022/12/08 02:57:50;;;;;;;15.57;7.90;;;-2.50;99.90;;;;;;5049644;28;20363;-74
2022/12/08 03:00:19;;;;;;;14.23;7.65;;;-2.50;99.90;;;;;;5050751;28;20095;-74
2022/12/08 03:03:12;;;;;;;21.67;8.10;;;-2.70;99.90;;;;;;5051252;28;20426;-73
2022/12/08 03:06:12;;;;;;;19.67;8.23;;;-2.70;99.90;;;;;;5051552;28;20025;-73
2022/12/08 03:09:06;;;;;;;17.42;9.40;;;-2.80;99.90;;;;;;5051707;28;20021;-74
2022/12/08 03:11:37;;;;;;;17.80;7.65;;;-2.90;99.90;;;;;;5050057;28;20028;-75
2022/12/08 03:14:06;;;;;;;15.00;7.85;;;-3.00;99.90;;;;;;5051642;28;20117;-73
2022/12/08 03:16:35;;;;;;;24.57;8.57;;;-3.00;99.90;;;;;;5051113;28;20124;-73
2022/12/08 03:19:36;;;;;;;19.67;8.48;;;-2.50;99.90;;;;;;5051803;28;20072;-75
2022/12/08 03:22:03;;;;;;;18.95;7.63;;;-2.70;99.90;;;;;;5030269;28;20041;-74
2022/12/08 03:24:38;;;;;;;18.17;7.60;;;-3.10;99.90;;;;;;5055482;28;20202;-73
2022/12/08 03:27:08;;;;;;;19.60;7.75;;;-3.10;99.90;;;;;;5052397;28;20315;-73
2022/12/08 03:29:34;;;;;;;20.55;8.68;;;-3.20;99.90;;;;;;5052403;28;20367;-74
2022/12/08 03:32:18;;;;;;;14.52;6.82;;;-3.20;99.90;;;;;;5051796;28;20028;-75
2022/12/08 03:34:46;;;;;;;21.08;9.57;;;-3.30;99.90;;;;;;5050815;28;20397;-73
2022/12/08 03:37:13;;;;;;;24.87;9.23;;;-3.40;99.90;;;;;;5055081;28;20025;-74
2022/12/08 03:39:39;;;;;;;16.73;9.00;;;-3.40;99.90;;;;;;5055667;28;20045;-74
2022/12/08 03:42:04;;;;;;;20.17;9.70;;;-3.40;99.90;;;;;;5055547;28;20021;-73
2022/12/08 03:44:30;;;;;;;14.57;8.52;;;-3.30;99.90;;;;;;5053983;28;20505;-74
2022/12/08 03:46:56;;;;;;;29.90;10.10;;;-3.30;99.90;;;;;;5051895;28;20029;-73
2022/12/08 03:49:21;;;;;;;22.35;9.02;;;-3.50;99.90;;;;;;5052156;28;20110;-73
2022/12/08 03:51:47;;;;;;;22.23;9.50;;;-3.40;99.90;;;;;;5050540;28;20075;-74
2022/12/08 03:54:12;;;;;;;16.83;8.68;;;-1.30;99.90;;;;;;5052065;28;20029;-73
2022/12/08 03:56:38;;;;;;;16.65;7.43;;;-3.50;99.90;;;;;;5052101;28;20029;-74
2022/12/08 03:59:06;;;;;;;24.17;9.35;;;-3.50;99.90;;;;;;5051882;28;20029;-74
2022/12/08 04:01:31;;;;;;;21.02;9.52;;;-3.40;99.90;;;;;;5051860;28;20025;-74
2022/12/08 04:03:57;;;;;;;17.15;7.97;;;-3.30;99.90;;;;;;5052080;28;20494;-74
2022/12/08 04:06:23;;;;;;;26.35;11.45;;;-3.30;99.90;;;;;;5051918;28;20132;-74
2022/12/08 04:08:50;;;;;;;21.50;9.57;;;-3.30;99.90;;;;;;5052398;28;20593;-74
2022/12/08 04:11:17;;;;;;;24.27;10.55;;;-3.30;99.90;;;;;;5051636;28;20104;-74
2022/12/08 04:13:43;;;;;;;19.80;10.27;;;0.40;99.90;;;;;;5051457;28;20025;-75
2022/12/08 04:16:17;;;;;;;19.58;9.27;;;-3.10;99.90;;;;;;5051757;28;20025;-73
2022/12/08 04:18:43;;;;;;;21.40;10.43;;;-3.50;99.90;;;;;;5051426;28;20013;-75
2022/12/08 04:21:08;;;;;;;21.17;9.57;;;-3.50;99.90;;;;;;5054056;28;20029;-73
2022/12/08 04:23:34;;;;;;;25.90;11.15;;;-3.50;99.90;;;;;;5053977;28;20029;-73
2022/12/08 04:25:59;;;;;;;31.35;12.02;;;-3.40;99.90;;;;;;5054715;28;20033;-73
2022/12/08 04:28:25;;;;;;;24.67;10.82;;;-3.30;99.90;;;;;;5053902;28;20055;-73
2022/12/08 04:30:51;;;;;;;25.08;11.75;;;-3.20;99.90;;;;;;5053553;28;20060;-73
2022/12/08 04:33:17;;;;;;;20.17;9.43;;;-3.30;99.90;;;;;;5052751;28;20044;-73
2022/12/08 04:35:42;;;;;;;22.35;9.63;;;-3.30;99.90;;;;;;5051556;28;20036;-73
2022/12/08 04:38:08;;;;;;;18.45;9.63;;;-3.30;99.90;;;;;;5052068;28;20300;-73
2022/12/08 04:40:33;;;;;;;19.95;7.60;;;-3.20;99.90;;;;;;5053742;28;20021;-73
2022/12/08 04:42:59;;;;;;;26.75;9.68;;;-3.20;99.90;;;;;;5049882;28;20021;-75
2022/12/08 04:45:25;;;;;;;23.65;9.45;;;-3.20;99.90;;;;;;5050025;28;20259;-73
2022/12/08 04:47:50;;;;;;;27.52;11.63;;;-3.10;99.90;;;;;;5049916;28;20028;-74
2022/12/08 04:50:16;;;;;;;20.35;10.75;;;-3.00;99.90;;;;;;5049686;28;20032;-74
2022/12/08 04:52:41;;;;;;;23.50;10.95;;;-2.90;99.90;;;;;;5047945;28;20025;-74
2022/12/08 04:55:07;;;;;;;24.77;9.30;;;-2.80;99.90;;;;;;5047876;28;20029;-74
2022/12/08 04:57:33;;;;;;;22.85;10.25;;;-2.70;99.90;;;;;;5049148;28;20021;-73
2022/12/08 04:59:59;;;;;;;21.23;10.60;;;-4.60;99.90;;;;;;5049516;28;20508;-74
2022/12/08 05:02:24;;;;;;;22.48;10.00;;;-2.60;99.90;;;;;;5049426;28;20096;-75
2022/12/08 05:04:50;;;;;;;27.27;12.57;;;-2.10;99.90;;;;;;5049513;28;20104;-75
2022/12/08 05:07:15;;;;;;;18.58;10.70;;;-2.50;99.90;;;;;;5049269;28;20189;-75
2022/12/08 05:09:41;;;;;;;19.70;9.98;;;-2.40;99.90;;;;;;5047942;28;20029;-73
2022/12/08 05:12:07;;;;;;;18.95;9.02;;;-2.30;99.90;;;;;;5047482;28;20521;-74
2022/12/08 05:14:32;;;;;;;25.08;10.73;;;-2.20;99.90;;;;;;5046647;28;20441;-74
2022/12/08 05:16:58;;;;;;;23.52;10.18;;;-2.10;99.90;;;;;;5049271;28;20125;-73
2022/12/08 05:19:24;;;;;;;23.00;9.40;;;-2.00;99.90;;;;;;5049046;28;20075;-74
2022/12/08 05:21:49;;;;;;;23.45;10.32;;;-2.00;99.90;;;;;;5047558;28;20069;-73
2022/12/08 05:24:15;;;;;;;19.90;9.75;;;-1.90;99.90;;;;;;5047830;28;20025;-75
2022/12/08 05:26:41;;;;;;;22.35;12.05;;;-1.90;99.90;;;;;;5045816;28;20435;-74
2022/12/08 05:29:06;;;;;;;17.58;8.82;;;-1.80;99.90;;;;;;5047256;28;20381;-74
2022/12/08 05:31:32;;;;;;;21.30;8.15;;;-1.80;99.90;;;;;;5045790;28;20545;-74
2022/12/08 05:33:57;;;;;;;17.67;9.35;;;-1.90;99.90;;;;;;5047219;28;20067;-73
2022/12/08 05:36:23;;;;;;;18.98;9.07;;;-1.90;99.90;;;;;;5047028;28;20111;-75
2022/12/08 05:38:49;;;;;;;21.42;9.23;;;-1.90;99.90;;;;;;5047620;28;20068;-73
2022/12/08 05:41:17;;;;;;;17.52;9.05;;;-1.80;99.90;;;;;;5050780;28;20482;-73
2022/12/08 05:43:43;;;;;;;17.73;9.27;;;-1.80;99.90;;;;;;5050810;28;20018;-75
2022/12/08 05:46:09;;;;;;;16.70;7.28;;;-1.80;99.90;;;;;;5051578;28;20040;-74
2022/12/08 05:48:35;;;;;;;17.05;8.63;;;-1.80;99.90;;;;;;5052445;28;20061;-74
2022/12/08 05:51:01;;;;;;;24.33;10.40;;;-1.70;99.90;;;;;;5052679;28;20340;-74
2022/12/08 05:53:27;;;;;;;24.88;10.10;;;0.20;99.90;;;;;;5052295;28;20599;-73
2022/12/08 05:55:52;;;;;;;15.90;7.70;;;-0.70;99.90;;;;;;5052454;28;20029;-72
2022/12/08 05:58:21;;;;;;;13.00;6.65;;;-1.90;99.90;;;;;;5051960;28;20052;-73
2022/12/08 06:00:48;;;;;;;18.38;7.40;;;-1.90;99.90;;;;;;5052176;28;20474;-74
2022/12/08 06:03:16;;;;;;;13.88;7.65;;;-1.90;99.90;;;;;;5052212;28;20482;-73
2022/12/08 06:05:43;;;;;;;36.13;9.07;;;-2.00;99.90;;;;;;5050908;28;20465;-74
2022/12/08 06:08:09;;;;;;;13.65;7.35;;;-2.00;99.90;;;;;;5050805;28;20032;-74
2022/12/08 06:10:37;;;;;;;17.23;8.60;;;-1.90;99.90;;;;;;5052170;28;20017;-74
2022/12/08 06:13:03;;;;;;;20.77;8.27;;;-2.10;99.90;;;;;;5051514;28;20385;-74
2022/12/08 06:15:28;;;;;;;18.50;7.47;;;-2.10;99.90;;;;;;5051840;28;20052;-74
2022/12/08 06:17:54;;;;;;;15.55;7.45;;;-2.20;99.90;;;;;;5051831;28;20025;-72
2022/12/08 06:20:19;;;;;;;13.35;6.93;;;-2.10;99.90;;;;;;5051727;28;20029;-72
2022/12/08 06:22:45;;;;;;;16.52;9.02;;;-2.10;99.90;;;;;;5051770;28;20044;-73
2022/12/08 06:25:11;;;;;;;22.77;9.60;;;-2.10;99.90;;;;;;5051853;28;20599;-72
2022/12/08 06:27:37;;;;;;;16.23;8.85;;;-2.10;99.90;;;;;;5050283;28;20104;-73
2022/12/08 06:30:03;;;;;;;17.67;7.70;;;-1.60;99.90;;;;;;5052088;28;20104;-73
2022/12/08 06:32:29;;;;;;;21.88;10.63;;;-2.00;99.90;;;;;;5050389;28;20507;-73
2022/12/08 06:34:55;;;;;;;22.88;9.02;;;-2.00;99.90;;;;;;5051710;28;20113;-73
2022/12/08 06:37:20;;;;;;;17.75;8.77;;;0.20;99.90;;;;;;5051690;28;20112;-73
2022/12/08 06:39:46;;;;;;;19.52;8.32;;;-2.00;99.90;;;;;;5051449;28;20033;-73
2022/12/08 06:44:56;;;;;;;21.08;8.65;;;-2.10;99.90;;;;;;5060941;28;20224;-73
2022/12/08 06:47:22;;;;;;;16.33;9.07;;;-2.20;99.90;;;;;;5061489;28;20100;-73
2022/12/08 06:49:47;;;;;;;19.65;10.90;;;-2.20;99.90;;;;;;5060833;28;20029;-72
2022/12/08 06:52:14;;;;;;;23.02;8.98;;;-2.20;99.90;;;;;;5052646;28;20064;-73
2022/12/08 06:54:39;;;;;;;23.15;8.25;;;-2.30;99.90;;;;;;5052387;28;20108;-74
2022/12/08 06:57:05;;;;;;;19.75;8.13;;;-2.20;99.90;;;;;;5051333;28;20124;-73
2022/12/08 06:59:31;;;;;;;16.38;7.90;;;-2.10;99.90;;;;;;5052024;28;20086;-73
2022/12/08 07:01:57;;;;;;;16.88;8.98;;;-2.10;99.90;;;;;;5053364;28;20021;-73
2022/12/08 07:04:22;;;;;;;18.15;8.85;;;-2.20;99.90;;;;;;5050209;28;20069;-73
2022/12/08 07:06:48;;;;;;;14.90;7.65;;;-2.20;99.90;;;;;;5055521;28;20025;-72
2022/12/08 07:09:14;;;;;;;16.23;6.95;;;-2.20;99.90;;;;;;5051933;28;20044;-73
2022/12/08 07:11:39;;;;;;;16.13;7.50;;;-2.20;99.90;;;;;;5055176;28;20029;-72
2022/12/08 07:14:05;;;;;;;13.98;7.25;;;-2.20;99.90;;;;;;5050873;28;20033;-74
2022/12/08 07:16:31;;;;;;;19.05;7.93;;;-2.10;99.90;;;;;;5051351;28;20021;-74
2022/12/08 07:18:58;;;;;;;15.88;7.40;;;-2.10;99.90;;;;;;5051059;28;20481;-73
2022/12/08 07:21:23;;;;;;;17.17;7.30;;;-1.90;99.90;;;;;;5049753;28;20508;-74
2022/12/08 07:23:49;;;;;;;18.25;8.07;;;-1.90;99.90;;;;;;5053761;28;20056;-75
2022/12/08 07:26:15;;;;;;;15.50;7.32;;;-1.90;99.90;;;;;;5069800;28;20186;-75
2022/12/08 07:28:41;;;;;;;17.08;7.22;;;-1.90;99.90;;;;;;5062133;28;20017;-77
2022/12/08 07:31:17;;;;;;;21.90;9.50;;;-0.60;99.90;;;;;;5048033;28;20021;-77
2022/12/08 07:33:42;;;;;;;20.92;10.02;;;-1.90;99.90;;;;;;5047775;28;20108;-76
2022/12/08 07:36:08;;;;;;;18.85;9.88;;;-1.90;99.90;;;;;;5046658;28;20190;-75
2022/12/08 07:38:34;;;;;;;28.15;12.07;;;-1.90;99.90;;;;;;5045799;28;20482;-75
2022/12/08 07:41:00;;;;;;;24.70;12.63;;;-1.90;99.90;;;;;;5056328;28;20396;-75
2022/12/08 07:43:26;;;;;;;23.15;9.68;;;-1.90;99.90;;;;;;5066224;28;20024;-75
2022/12/08 07:45:52;;;;;;;26.17;10.20;;;-1.90;99.90;;;;;;5059739;28;20055;-75
2022/12/08 07:48:18;;;;;;;21.85;8.27;;;-2.00;99.90;;;;;;5056986;28;20328;-75
2022/12/08 07:50:44;;;;;;;21.77;8.70;;;-2.00;99.90;;;;;;5080162;28;20082;-76
2022/12/08 07:53:10;;;;;;;24.55;9.77;;;-2.00;99.90;;;;;;5066666;28;20031;-76
2022/12/08 07:55:40;;;;;;;22.05;10.02;;;-2.00;99.90;;;;;;5081611;28;20044;-75
2022/12/08 07:58:06;;;;;;;18.63;9.10;;;-1.90;99.90;;;;;;5065786;28;20021;-76
2022/12/08 08:00:31;;;;;;;23.75;10.23;;;-2.00;99.90;;;;;;5065579;28;20202;-75
2022/12/08 08:02:57;;;;;;;17.00;9.25;;;-2.00;99.90;;;;;;5065547;28;20183;-75
2022/12/08 08:05:23;;;;;;;22.90;11.18;;;-2.00;99.90;;;;;;5063815;28;20028;-76
2022/12/08 08:07:48;;;;;;;17.33;9.55;;;0.50;99.90;;;;;;5071641;28;20423;-75
2022/12/08 08:10:14;;;;;;;22.65;11.18;;;-1.90;99.90;;;;;;5087645;28;20019;-75
2022/12/08 08:12:40;;;;;;;20.52;10.52;;;-1.90;99.90;;;;;;5065498;28;20032;-76
2022/12/08 08:15:07;;;;;;;24.23;10.98;;;-1.80;99.90;;;;;;5066274;28;20052;-75
2022/12/08 08:17:35;;;;;;;15.88;10.48;;;-1.60;99.90;;;;;;5069601;28;20063;-75
2022/12/08 08:20:01;;;;;;;21.63;12.45;;;-1.50;99.90;;;;;;5066470;28;20036;-76
2022/12/08 08:22:27;;;;;;;26.10;12.13;;;-1.50;99.90;;;;;;5065162;28;20052;-76
2022/12/08 08:24:53;;;;;;;36.15;13.07;;;-1.20;99.90;;;;;;5069189;28;20086;-75
2022/12/08 08:27:19;;;;;;;21.35;11.60;;;-1.10;99.90;;;;;;5067573;28;20400;-75
2022/12/08 08:29:45;;;;;;;26.83;12.45;;;-1.00;99.90;;;;;;5068783;28;20021;-75
2022/12/08 08:32:11;;;;;;;27.08;12.40;;;-1.00;99.90;;;;;;5066786;28;20035;-76
2022/12/08 08:34:37;;;;;;;24.08;10.25;;;-0.90;99.90;;;;;;5066286;28;20082;-75
2022/12/08 08:37:03;;;;;;;28.42;13.75;;;-0.70;99.90;;;;;;5070821;28;20031;-76
2022/12/08 08:39:30;;;;;;;30.25;15.43;;;1.30;99.90;;;;;;5068327;28;20177;-76
2022/12/08 08:41:56;;;;;;;33.00;16.05;;;1.40;99.90;;;;;;5058058;28;20028;-75
2022/12/08 08:44:22;;;;;;;35.92;17.55;;;1.10;99.90;;;;;;5058271;28;20475;-75
2022/12/08 08:46:47;;;;;;;38.10;18.90;;;2.10;99.90;;;;;;5055992;28;20021;-75
2022/12/08 08:49:13;;;;;;;36.90;16.48;;;2.80;99.90;;;;;;5058807;28;20461;-75
2022/12/08 08:51:39;;;;;;;33.25;17.67;;;1.10;99.90;;;;;;5057719;28;20507;-76
2022/12/08 08:54:04;;;;;;;39.03;17.73;;;2.60;99.90;;;;;;5063660;28;20531;-76
2022/12/08 08:56:30;;;;;;;36.92;14.05;;;-0.20;99.90;;;;;;5065491;28;20471;-75
2022/12/08 08:58:56;;;;;;;31.83;14.45;;;1.30;99.90;;;;;;5065688;28;20021;-76
2022/12/08 09:01:24;;;;;;;31.20;15.25;;;-0.10;99.90;;;;;;5064915;28;20506;-76
2022/12/08 09:03:50;;;;;;;33.42;13.35;;;-0.10;99.90;;;;;;5066070;28;20035;-76
2022/12/08 09:06:16;;;;;;;31.10;13.73;;;0.00;99.90;;;;;;5065851;28;20021;-74
2022/12/08 09:08:43;;;;;;;29.75;12.10;;;0.10;99.90;;;;;;5064344;28;20134;-75
2022/12/08 09:11:09;;;;;;;21.98;11.88;;;0.20;99.90;;;;;;5066461;28;20032;-75
2022/12/08 09:13:35;;;;;;;24.75;10.93;;;0.10;99.90;;;;;;5066187;28;20566;-74
2022/12/08 09:16:03;;;;;;;23.88;12.23;;;0.20;99.90;;;;;;5070507;28;20032;-75
2022/12/08 09:18:29;;;;;;;30.85;13.98;;;0.90;99.90;;;;;;5064343;28;20317;-76
2022/12/08 09:20:55;;;;;;;26.95;11.18;;;0.40;99.90;;;;;;5067668;28;20025;-75
2022/12/08 09:23:21;;;;;;;26.02;12.30;;;0.60;99.90;;;;;;5085382;28;20032;-76
2022/12/08 09:25:47;;;;;;;29.60;13.70;;;1.60;99.90;;;;;;5068612;28;20017;-76
2022/12/08 09:28:13;;;;;;;26.67;14.30;;;0.90;99.90;;;;;;5069287;28;20159;-75
2022/12/08 09:30:39;;;;;;;27.08;11.85;;;2.20;99.90;;;;;;5069925;28;20032;-76
2022/12/08 09:33:05;;;;;;;29.30;15.40;;;1.20;99.90;;;;;;5084927;28;20032;-76
2022/12/08 09:35:32;;;;;;;24.35;13.93;;;1.20;99.90;;;;;;5072315;28;20037;-75
2022/12/08 09:37:57;;;;;;;23.08;9.98;;;1.60;99.90;;;;;;5087744;28;20021;-75
2022/12/08 09:40:25;;;;;;;21.42;10.73;;;1.50;99.90;;;;;;5086888;28;20031;-75
2022/12/08 09:43:01;;;;;;;18.63;9.13;;;1.40;99.90;;;;;;5069833;28;20050;-75
2022/12/08 09:45:32;;;;;;;22.55;9.93;;;1.40;99.90;;;;;;5085967;28;20492;-76
2022/12/08 09:48:12;;;;;;;23.30;10.07;;;2.70;99.90;;;;;;5068100;28;20024;-74
2022/12/08 09:50:54;;;;;;;19.73;9.05;;;3.30;99.90;;;;;;5070258;28;20021;-75
2022/12/08 09:53:31;;;;;;;22.13;9.98;;;1.60;99.90;;;;;;5063715;28;20389;-84
2022/12/08 09:56:07;;;;;;;19.15;10.25;;;2.30;99.90;;;;;;5076189;28;20039;-76
2022/12/08 09:58:55;;;;;;;19.02;9.10;;;1.40;99.90;;;;;;5067980;28;20120;-79
2022/12/08 10:01:22;;;;;;;21.17;9.95;;;1.50;99.90;;;;;;5074909;28;20039;-73
2022/12/08 10:03:48;;;;;;;21.50;9.52;;;3.10;99.90;;;;;;5069076;28;20081;-76
2022/12/08 10:06:19;;;;;;;20.42;9.50;;;1.70;99.90;;;;;;5074976;28;20034;-75
2022/12/08 10:09:01;;;;;;;19.35;9.20;;;1.80;99.90;;;;;;5065507;28;20039;-74
2022/12/08 10:11:52;;;;;;;14.80;8.35;;;2.00;99.90;;;;;;5060989;28;20472;-73
2022/12/08 10:14:37;;;;;;;14.93;7.30;;;2.00;99.90;;;;;;5047385;28;20029;-73
2022/12/08 10:17:34;;;;;;;14.35;6.85;;;2.00;99.90;;;;;;5060762;28;20330;-74
2022/12/08 10:20:09;;;;;;;18.73;10.45;;;2.00;99.90;;;;;;5067907;28;20037;-74
2022/12/08 10:22:35;;;;;;;17.52;8.13;;;2.80;99.90;;;;;;5066792;28;20055;-73
2022/12/08 10:25:27;;;;;;;17.15;9.23;;;2.10;99.90;;;;;;5068725;28;20384;-74
2022/12/08 10:27:54;;;;;;;16.05;8.88;;;2.10;99.90;;;;;;5069591;28;20312;-75
2022/12/08 10:30:21;;;;;;;18.85;9.27;;;2.10;99.90;;;;;;5076183;28;20480;-74
2022/12/08 10:32:52;;;;;;;21.85;7.55;;;2.00;99.90;;;;;;5070077;28;20047;-74
2022/12/08 10:35:20;;;;;;;19.98;10.43;;;2.00;99.90;;;;;;5070628;28;20044;-74
2022/12/08 10:37:58;;;;;;;19.48;10.13;;;1.90;99.90;;;;;;5064883;28;20036;-74
2022/12/08 10:40:27;;;;;;;16.40;7.43;;;2.10;99.90;;;;;;5068298;28;20459;-74
2022/12/08 10:42:56;;;;;;;14.48;9.20;;;1.80;99.90;;;;;;5069979;28;20215;-73
2022/12/08 10:45:26;;;;;;;19.02;9.75;;;2.10;99.90;;;;;;5069219;28;20361;-74
2022/12/08 10:48:08;;;;;;;14.38;8.15;;;1.50;99.90;;;;;;5064157;28;20309;-75
2022/12/08 10:50:55;;;;;;;37.58;18.48;;;1.50;99.90;;;;;;5061942;28;20025;-75
2022/12/08 10:53:29;;;;;;;21.25;8.50;;;1.60;99.90;;;;;;5059148;28;20270;-75
2022/12/08 10:56:01;;;;;;;24.48;8.98;;;2.30;99.90;;;;;;5069002;28;20504;-74
2022/12/08 10:58:41;;;;;;;23.38;10.23;;;1.10;99.90;;;;;;5069688;28;20012;-75
2022/12/08 11:01:16;;;;;;;20.73;8.52;;;1.00;99.90;;;;;;5069540;28;20378;-75
2022/12/08 11:03:51;;;;;;;21.67;8.80;;;1.00;99.90;;;;;;5069406;28;20586;-74
2022/12/08 11:06:22;;;;;;;21.85;10.35;;;0.90;99.90;;;;;;5084055;28;20498;-74
2022/12/08 11:09:00;;;;;;;23.00;11.07;;;0.90;99.90;;;;;;5068313;28;20043;-74
2022/12/08 11:11:38;;;;;;;17.88;8.80;;;1.00;99.90;;;;;;5068293;28;20119;-75
2022/12/08 11:14:07;;;;;;;20.65;10.20;;;1.10;99.90;;;;;;5069402;28;20036;-74
2022/12/08 11:16:33;;;;;;;;;;;1.20;99.90;;;;;;5069413;28;20027;-74
2022/12/08 11:19:05;;;;;;;22.63;9.85;;;1.80;99.90;;;;;;5069126;28;19905;-74
2022/12/08 11:21:37;;;;;;;23.80;10.43;;;1.60;99.90;;;;;;5069252;28;20508;-75
2022/12/08 11:24:14;;;;;;;22.60;10.13;;;2.30;99.90;;;;;;5070048;28;20452;-75
2022/12/08 11:27:03;;;;;;;19.02;10.45;;;1.60;99.90;;;;;;5069860;28;20043;-74
2022/12/08 11:29:31;;;;;;;20.42;10.05;;;1.60;99.90;;;;;;5062425;28;20633;-74
2022/12/08 11:32:02;;;;;;;21.97;10.13;;;1.60;99.90;;;;;;5069204;28;20029;-74
2022/12/08 11:34:43;;;;;;;17.80;9.70;;;1.60;99.90;;;;;;5069394;28;20033;-75
2022/12/08 11:37:39;;;;;;;22.88;11.30;;;1.50;99.90;;;;;;5070490;28;20197;-74
2022/12/08 11:40:37;;;;;;;18.65;8.82;;;1.50;99.90;;;;;;5056519;28;20546;-74
2022/12/08 11:43:13;;;;;;;21.70;9.98;;;1.50;99.90;;;;;;5070302;28;20020;-75
2022/12/08 11:45:40;;;;;;;19.73;9.60;;;1.70;99.90;;;;;;5070619;28;20074;-74
2022/12/08 11:48:34;;;;;;;19.05;8.63;;;1.80;99.90;;;;;;5069269;28;20027;-74
2022/12/08 11:51:07;;;;;;;25.17;10.57;;;1.40;99.90;;;;;;5086169;28;20166;-75
2022/12/08 11:53:59;;;;;;;20.30;10.32;;;1.50;99.90;;;;;;5068940;28;20465;-75
2022/12/08 11:56:31;;;;;;;21.35;12.52;;;1.70;99.90;;;;;;5070189;28;20043;-74
2022/12/08 11:59:01;;;;;;;24.58;12.73;;;1.80;99.90;;;;;;5070522;28;20020;-74
2022/12/08 12:01:27;;;;;;;17.25;9.93;;;1.90;99.90;;;;;;5068629;28;20028;-74
2022/12/08 12:04:17;;;;;;;26.13;13.70;;;2.10;99.90;;;;;;5085640;28;20025;-74
2022/12/08 12:07:15;;;;;;;21.05;10.80;;;2.10;99.90;;;;;;5068895;28;20028;-74
2022/12/08 12:10:18;;;;;;;24.13;11.20;;;2.10;99.90;;;;;;5068723;28;20481;-74
2022/12/08 12:13:34;;;;;;;24.38;9.05;;;2.00;99.90;;;;;;5070058;28;20028;-75
2022/12/08 12:16:05;;;;;;;18.98;9.52;;;1.80;99.90;;;;;;5052229;28;20080;-75
2022/12/08 12:18:44;;;;;;;26.33;12.60;;;1.70;99.90;;;;;;5070876;28;20024;-75
2022/12/08 12:21:15;;;;;;;26.23;11.75;;;2.80;99.90;;;;;;5069375;28;20055;-75
2022/12/08 12:23:50;;;;;;;18.48;10.07;;;1.70;99.90;;;;;;5070746;28;20024;-74
2022/12/08 12:26:36;;;;;;;27.27;12.77;;;1.70;99.90;;;;;;5069941;28;20154;-75
2022/12/08 12:29:05;;;;;;;24.40;12.90;;;1.60;99.90;;;;;;5070770;28;20044;-75
2022/12/08 12:31:40;;;;;;;20.55;11.57;;;1.60;99.90;;;;;;5069374;28;20078;-75
2022/12/08 12:34:26;;;;;;;26.63;12.23;;;2.20;99.90;;;;;;5070046;28;20031;-74
2022/12/08 12:37:02;;;;;;;26.00;11.02;;;1.70;99.90;;;;;;5069734;28;20024;-74
2022/12/08 12:39:32;;;;;;;24.33;12.68;;;1.60;99.90;;;;;;5069546;28;20029;-75
2022/12/08 12:42:03;;;;;;;19.63;10.90;;;1.50;99.90;;;;;;5068692;28;20028;-74
2022/12/08 12:44:32;;;;;;;25.10;12.27;;;1.50;99.90;;;;;;5069798;28;20632;-75
2022/12/08 12:47:00;;;;;;;21.33;9.98;;;1.50;99.90;;;;;;5068580;28;20504;-75
2022/12/08 12:49:42;;;;;;;25.77;10.60;;;2.80;99.90;;;;;;5084440;28;20056;-74
2022/12/08 12:52:17;;;;;;;21.65;9.32;;;2.10;99.90;;;;;;5069904;28;20028;-75
2022/12/08 12:55:04;;;;;;;22.10;8.73;;;1.90;99.90;;;;;;5069804;28;20028;-75
2022/12/08 12:57:38;;;;;;;23.15;9.45;;;1.80;99.90;;;;;;5069791;28;20481;-75
2022/12/08 13:00:08;;;;;;;26.10;11.75;;;1.90;99.90;;;;;;5085794;28;20029;-74